createdAt,value
2019-01-30T00:01:19.828Z,99903.95
2019-01-30T00:03:48.788Z,99896.70
2019-01-30T00:06:17.403Z,99889.48
2019-01-30T00:08:46.015Z,99894.56
2019-01-30T00:11:14.625Z,99889.45
2019-01-30T00:13:43.193Z,99887.36
2019-01-30T00:16:14.494Z,99886.09
2019-01-30T00:18:43.115Z,99888.23
2019-01-30T00:21:17.982Z,99884.84
2019-01-30T00:23:46.702Z,99881.01
2019-01-30T00:26:15.330Z,99886.55
2019-01-30T00:28:43.945Z,99885.28
2019-01-30T00:31:12.503Z,99884.45
2019-01-30T00:33:43.956Z,99883.98
2019-01-30T00:36:12.537Z,99886.11
2019-01-30T00:38:43.895Z,99878.45
2019-01-30T00:41:12.741Z,99875.04
2019-01-30T00:43:41.453Z,99872.06
2019-01-30T00:46:10.165Z,99867.80
2019-01-30T00:48:38.772Z,99869.48
2019-01-30T00:51:07.488Z,99870.80
2019-01-30T00:53:36.198Z,99873.81
2019-01-30T00:56:05.000Z,99869.99
2019-01-30T00:58:33.723Z,99873.42
2019-01-30T01:01:06.293Z,99864.52
2019-01-30T01:03:34.974Z,99866.66
2019-01-30T01:06:03.750Z,99871.78
2019-01-30T01:08:35.226Z,99877.31
2019-01-30T01:11:03.950Z,99873.97
2019-01-30T01:13:35.332Z,99872.64
2019-01-30T01:16:06.929Z,99875.21
2019-01-30T01:18:38.513Z,99873.11
2019-01-30T01:21:07.147Z,99869.70
2019-01-30T01:23:35.768Z,99867.55
2019-01-30T01:26:04.461Z,99862.45
2019-01-30T01:28:36.097Z,99868.41
2019-01-30T01:31:07.681Z,99868.88
2019-01-30T01:33:42.184Z,99865.86
2019-01-30T01:36:12.752Z,99863.34
2019-01-30T01:38:41.712Z,99855.66
2019-01-30T01:41:13.279Z,99854.80
2019-01-30T01:43:44.924Z,99853.54
2019-01-30T01:46:14.010Z,99849.73
2019-01-30T01:48:42.617Z,99853.12
2019-01-30T01:51:13.971Z,99842.06
2019-01-30T01:53:42.571Z,99837.78
2019-01-30T01:56:13.929Z,99835.66
2019-01-30T01:58:45.277Z,99833.15
2019-01-30T02:01:16.725Z,99829.36
2019-01-30T02:03:47.884Z,99825.13
2019-01-30T02:06:19.897Z,99829.34
2019-01-30T02:08:48.513Z,99823.04
2019-01-30T02:11:17.341Z,99819.23
2019-01-30T02:13:48.823Z,99820.46
2019-01-30T02:16:20.393Z,99820.91
2019-01-30T02:18:48.996Z,99818.75
2019-01-30T02:21:17.622Z,99812.81
2019-01-30T02:23:46.229Z,99812.84
2019-01-30T02:26:14.872Z,99805.19
2019-01-30T02:28:46.270Z,99809.03
2019-01-30T02:31:14.936Z,99806.89
2019-01-30T02:33:46.415Z,99804.34
2019-01-30T02:36:15.318Z,99801.80
2019-01-30T02:38:43.942Z,99797.13
2019-01-30T02:41:12.538Z,99798.38
2019-01-30T02:43:44.301Z,99798.38
2019-01-30T02:46:12.861Z,99793.29
2019-01-30T02:48:43.115Z,99790.34
2019-01-30T02:51:17.649Z,99791.19
2019-01-30T02:53:49.060Z,99789.91
2019-01-30T02:56:20.662Z,99787.36
2019-01-30T02:58:49.492Z,99786.03
2019-01-30T03:01:21.179Z,99789.88
2019-01-30T03:03:49.736Z,99789.84
2019-01-30T03:06:18.341Z,99794.13
2019-01-30T03:08:46.906Z,99785.61
2019-01-30T03:11:18.266Z,99785.18
2019-01-30T03:13:49.812Z,99792.40
2019-01-30T03:16:21.285Z,99794.97
2019-01-30T03:18:52.912Z,99793.28
2019-01-30T03:21:24.427Z,99793.77
2019-01-30T03:23:53.013Z,99794.20
2019-01-30T03:26:21.740Z,99794.58
2019-01-30T03:28:50.310Z,99799.67
2019-01-30T03:31:19.615Z,99799.64
2019-01-30T03:33:51.456Z,99792.44
2019-01-30T03:36:20.027Z,99795.03
2019-01-30T03:38:48.672Z,99793.77
2019-01-30T03:41:17.242Z,99794.20
2019-01-30T03:43:45.890Z,99792.93
2019-01-30T03:46:17.092Z,99792.48
2019-01-30T03:48:48.833Z,99783.58
2019-01-30T03:51:20.829Z,99786.58
2019-01-30T03:53:52.116Z,99785.31
2019-01-30T03:56:20.721Z,99779.39
2019-01-30T03:58:49.323Z,99773.44
2019-01-30T04:01:26.526Z,99779.36
2019-01-30T04:03:48.284Z,99782.73
2019-01-30T04:06:16.882Z,99783.19
2019-01-30T04:08:48.660Z,99778.91
2019-01-30T04:11:17.259Z,99781.88
2019-01-30T04:13:45.838Z,99779.73
2019-01-30T04:16:17.290Z,99782.30
2019-01-30T04:18:45.927Z,99775.47
2019-01-30T04:21:14.530Z,99775.89
2019-01-30T04:23:43.095Z,99782.31
2019-01-30T04:26:13.320Z,99777.21
2019-01-30T04:28:44.842Z,99773.37
2019-01-30T04:31:13.496Z,99771.25
2019-01-30T04:33:42.071Z,99767.86
2019-01-30T04:36:10.665Z,99763.20
2019-01-30T04:38:42.203Z,99761.06
2019-01-30T04:41:13.772Z,99758.96
2019-01-30T04:43:45.559Z,99760.66
2019-01-30T04:46:14.119Z,99758.98
2019-01-30T04:48:45.772Z,99756.87
2019-01-30T04:51:17.449Z,99753.91
2019-01-30T04:53:46.021Z,99752.67
2019-01-30T04:56:15.044Z,99753.52
2019-01-30T04:58:46.291Z,99752.25
2019-01-30T05:01:14.988Z,99748.84
2019-01-30T05:03:46.469Z,99751.80
2019-01-30T05:06:17.822Z,99745.45
2019-01-30T05:08:46.411Z,99750.98
2019-01-30T05:11:15.016Z,99746.73
2019-01-30T05:13:43.917Z,99735.70
2019-01-30T05:16:15.171Z,99733.15
2019-01-30T05:18:43.782Z,99734.44
2019-01-30T05:21:12.471Z,99734.45
2019-01-30T05:23:44.149Z,99729.33
2019-01-30T05:26:12.775Z,99731.86
2019-01-30T05:28:41.996Z,99733.16
2019-01-30T05:31:13.485Z,99724.23
2019-01-30T05:33:42.043Z,99728.88
2019-01-30T05:36:10.814Z,99728.88
2019-01-30T05:38:42.265Z,99719.98
2019-01-30T05:41:12.564Z,99726.35
2019-01-30T05:43:42.594Z,99728.86
2019-01-30T05:46:11.657Z,99721.69
2019-01-30T05:48:43.005Z,99725.08
2019-01-30T05:51:13.253Z,99723.00
2019-01-30T05:53:47.718Z,99725.11
2019-01-30T05:56:16.310Z,99728.88
2019-01-30T05:58:45.026Z,99731.46
2019-01-30T06:01:13.602Z,99732.72
2019-01-30T06:03:42.206Z,99735.30
2019-01-30T06:06:13.831Z,99734.02
2019-01-30T06:08:42.536Z,99734.44
2019-01-30T06:11:14.538Z,99736.11
2019-01-30T06:13:46.077Z,99740.36
2019-01-30T06:16:17.695Z,99742.06
2019-01-30T06:18:49.172Z,99739.95
2019-01-30T06:21:20.544Z,99745.47
2019-01-30T06:23:49.223Z,99742.08
2019-01-30T06:26:17.845Z,99745.87
2019-01-30T06:28:46.503Z,99746.75
2019-01-30T06:31:17.974Z,99745.01
2019-01-30T06:33:47.017Z,99741.22
2019-01-30T06:36:18.375Z,99742.46
2019-01-30T06:38:46.974Z,99744.20
2019-01-30T06:41:15.589Z,99741.20
2019-01-30T06:43:47.248Z,99741.20
2019-01-30T06:46:15.851Z,99744.61
2019-01-30T06:48:44.463Z,99740.75
2019-01-30T06:51:13.069Z,99736.97
2019-01-30T06:53:45.096Z,99727.63
2019-01-30T06:56:16.641Z,99733.61
2019-01-30T06:58:45.247Z,99730.22
2019-01-30T07:01:16.971Z,99722.59
2019-01-30T07:03:45.589Z,99724.27
2019-01-30T07:06:17.096Z,99719.59
2019-01-30T07:08:49.008Z,99725.52
2019-01-30T07:11:17.576Z,99729.78
2019-01-30T07:13:49.162Z,99730.62
2019-01-30T07:16:21.021Z,99726.80
2019-01-30T07:18:49.732Z,99721.69
2019-01-30T07:21:18.331Z,99728.48
2019-01-30T07:23:46.887Z,99726.36
2019-01-30T07:26:15.580Z,99725.06
2019-01-30T07:28:44.134Z,99730.98
2019-01-30T07:31:12.796Z,99733.09
2019-01-30T07:33:44.392Z,99732.19
2019-01-30T07:36:12.948Z,99735.14
2019-01-30T07:38:43.599Z,99729.59
2019-01-30T07:41:12.200Z,99736.33
2019-01-30T07:43:43.507Z,99731.63
2019-01-30T07:46:15.127Z,99729.92
2019-01-30T07:48:43.718Z,99730.77
2019-01-30T07:51:12.341Z,99727.32
2019-01-30T07:53:42.413Z,99725.59
2019-01-30T07:56:14.126Z,99731.56
2019-01-30T07:58:43.110Z,99729.80
2019-01-30T08:01:17.796Z,99728.84
2019-01-30T08:03:46.747Z,99724.98
2019-01-30T08:06:15.359Z,99729.66
2019-01-30T08:08:44.015Z,99726.14
2019-01-30T08:11:12.896Z,99725.25
2019-01-30T08:13:43.375Z,99723.98
2019-01-30T08:16:13.010Z,99724.27
2019-01-30T08:18:43.577Z,99725.44
2019-01-30T08:21:12.329Z,99719.88
2019-01-30T08:23:44.077Z,99724.01
2019-01-30T08:26:15.937Z,99717.97
2019-01-30T08:28:44.685Z,99717.53
2019-01-30T08:31:14.137Z,99716.56
2019-01-30T08:33:42.835Z,99716.55
2019-01-30T08:36:11.555Z,99715.21
2019-01-30T08:38:40.169Z,99715.11
2019-01-30T08:41:08.889Z,99720.13
2019-01-30T08:43:37.549Z,99716.24
2019-01-30T08:46:06.573Z,99717.93
2019-01-30T08:48:35.139Z,99715.70
2019-01-30T08:51:03.892Z,99713.43
2019-01-30T08:53:32.848Z,99718.92
2019-01-30T08:56:01.625Z,99718.05
2019-01-30T08:58:30.231Z,99717.98
2019-01-30T09:00:59.176Z,99724.34
2019-01-30T09:03:27.715Z,99727.75
2019-01-30T09:05:56.331Z,99721.20
2019-01-30T09:08:24.953Z,99721.53
2019-01-30T09:10:56.391Z,99716.86
2019-01-30T09:13:27.998Z,99723.59
2019-01-30T09:15:56.549Z,99721.81
2019-01-30T09:18:25.274Z,99724.84
2019-01-30T09:20:56.607Z,99730.39
2019-01-30T09:23:25.362Z,99726.55
2019-01-30T09:25:53.960Z,99723.46
2019-01-30T09:28:22.516Z,99721.13
2019-01-30T09:30:51.114Z,99719.05
2019-01-30T09:33:26.000Z,99723.69
2019-01-30T09:35:50.537Z,99719.82
2019-01-30T09:38:19.076Z,99723.18
2019-01-30T09:40:51.322Z,99717.99
2019-01-30T09:43:19.842Z,99710.64
2019-01-30T09:45:48.638Z,99709.70
2019-01-30T09:48:18.795Z,99712.17
2019-01-30T09:50:47.420Z,99712.50
2019-01-30T09:53:16.465Z,99716.23
2019-01-30T09:55:49.434Z,99715.70
2019-01-30T09:58:18.115Z,99714.83
2019-01-30T10:00:49.696Z,99715.11
2019-01-30T10:03:21.277Z,99715.95
2019-01-30T10:05:52.751Z,99710.87
2019-01-30T10:08:21.464Z,99704.09
2019-01-30T10:10:52.766Z,99709.53
2019-01-30T10:13:21.474Z,99706.84
2019-01-30T10:15:50.047Z,99702.86
2019-01-30T10:18:18.649Z,99704.98
2019-01-30T10:20:51.287Z,99699.33
2019-01-30T10:23:22.906Z,99700.12
2019-01-30T10:25:54.283Z,99692.12
2019-01-30T10:28:23.094Z,99684.12
2019-01-30T10:30:52.320Z,99684.53
2019-01-30T10:33:23.937Z,99680.67
2019-01-30T10:35:56.373Z,99675.72
2019-01-30T10:38:28.333Z,99668.94
2019-01-30T10:40:56.946Z,99669.64
2019-01-30T10:43:26.129Z,99668.30
2019-01-30T10:45:54.740Z,99664.80
2019-01-30T10:48:23.336Z,99662.58
2019-01-30T10:50:51.894Z,99672.29
2019-01-30T10:53:20.577Z,99664.74
2019-01-30T10:55:49.133Z,99663.77
2019-01-30T10:58:17.789Z,99654.78
2019-01-30T11:00:50.926Z,99658.58
2019-01-30T11:03:19.904Z,99654.08
2019-01-30T11:05:48.884Z,99652.06
2019-01-30T11:08:17.658Z,99656.10
2019-01-30T11:10:46.445Z,99656.78
2019-01-30T11:13:15.641Z,99644.63
2019-01-30T11:15:44.228Z,99644.34
2019-01-30T11:18:13.588Z,99645.13
2019-01-30T11:20:42.297Z,99643.00
2019-01-30T11:23:11.139Z,99642.84
2019-01-30T11:25:45.475Z,99631.96
2019-01-30T11:28:14.180Z,99630.95
2019-01-30T11:30:42.764Z,99631.08
2019-01-30T11:33:11.774Z,99627.49
2019-01-30T11:35:42.587Z,99626.42
2019-01-30T11:38:13.491Z,99629.95
2019-01-30T11:40:42.173Z,99623.91
2019-01-30T11:43:12.762Z,99619.51
2019-01-30T11:45:43.485Z,99614.43
2019-01-30T11:48:12.143Z,99620.13
2019-01-30T11:50:42.420Z,99623.95
2019-01-30T11:53:13.994Z,99632.56
2019-01-30T11:55:45.401Z,99622.52
2019-01-30T11:58:13.985Z,99614.80
2019-01-30T12:00:56.318Z,99617.25
2019-01-30T12:03:25.148Z,99610.36
2019-01-30T12:05:57.313Z,99605.06
2019-01-30T12:08:29.088Z,99601.05
2019-01-30T12:10:57.641Z,99601.39
2019-01-30T12:13:26.816Z,99586.72
2019-01-30T12:15:55.433Z,99584.16
2019-01-30T12:18:24.152Z,99583.45
2019-01-30T12:20:55.475Z,99576.72
2019-01-30T12:23:27.795Z,99577.94
2019-01-30T12:25:56.435Z,99575.55
2019-01-30T12:28:25.145Z,99569.58
2019-01-30T12:30:54.389Z,99572.20
2019-01-30T12:33:22.973Z,99571.93
2019-01-30T12:35:51.693Z,99571.32
2019-01-30T12:38:20.304Z,99561.05
2019-01-30T12:40:51.991Z,99560.20
2019-01-30T12:43:23.277Z,99553.69
2019-01-30T12:45:51.902Z,99560.08
2019-01-30T12:48:20.511Z,99557.53
2019-01-30T12:50:50.328Z,99551.12
2019-01-30T12:53:18.923Z,99554.59
2019-01-30T12:55:47.572Z,99555.50
2019-01-30T12:58:16.179Z,99551.09
2019-01-30T13:00:47.895Z,99551.16
2019-01-30T13:03:16.511Z,99548.52
2019-01-30T13:05:45.174Z,99544.20
2019-01-30T13:08:16.661Z,99548.47
2019-01-30T13:10:48.790Z,99544.94
2019-01-30T13:13:20.015Z,99545.39
2019-01-30T13:15:51.335Z,99538.38
2019-01-30T13:18:22.656Z,99539.04
2019-01-30T13:20:54.113Z,99539.66
2019-01-30T13:23:22.646Z,99537.41
2019-01-30T13:25:51.210Z,99534.62
2019-01-30T13:28:19.923Z,99538.00
2019-01-30T13:30:48.534Z,99531.77
2019-01-30T13:33:17.144Z,99531.77
2019-01-30T13:35:45.754Z,99529.92
2019-01-30T13:38:14.465Z,99527.20
2019-01-30T13:40:43.383Z,99524.77
2019-01-30T13:43:12.070Z,99516.36
2019-01-30T13:45:40.762Z,99516.42
2019-01-30T13:48:12.366Z,99509.24
2019-01-30T13:50:42.598Z,99501.42
2019-01-30T13:53:14.364Z,99506.16
2019-01-30T13:55:43.983Z,99508.97
2019-01-30T13:58:14.806Z,99505.63
2019-01-30T14:00:43.635Z,99509.94
2019-01-30T14:03:12.409Z,99509.66
2019-01-30T14:05:41.433Z,99503.37
2019-01-30T14:08:10.561Z,99499.19
2019-01-30T14:10:41.445Z,99497.73
2019-01-30T14:13:13.306Z,99493.09
2019-01-30T14:15:48.043Z,99497.91
2019-01-30T14:18:19.489Z,99497.58
2019-01-30T14:20:52.342Z,99486.14
2019-01-30T14:23:21.183Z,99491.94
2019-01-30T14:25:52.689Z,99490.33
2019-01-30T14:28:21.364Z,99484.48
2019-01-30T14:30:50.341Z,99486.16
2019-01-30T14:33:19.156Z,99487.05
2019-01-30T14:35:48.086Z,99484.98
2019-01-30T14:38:16.776Z,99478.88
2019-01-30T14:40:45.529Z,99480.98
2019-01-30T14:43:15.040Z,99483.99
2019-01-30T14:45:43.778Z,99484.44
2019-01-30T14:48:12.577Z,99484.95
2019-01-30T14:50:41.293Z,99483.28
2019-01-30T14:53:11.774Z,99481.95
2019-01-30T14:55:43.041Z,99482.06
2019-01-30T14:58:15.083Z,99483.79
2019-01-30T15:00:43.693Z,99486.53
2019-01-30T15:03:12.235Z,99485.18
2019-01-30T15:05:42.341Z,99480.10
2019-01-30T15:08:12.509Z,99480.21
2019-01-30T15:10:43.939Z,99484.89
2019-01-30T15:13:13.224Z,99479.44
2019-01-30T15:15:47.803Z,99487.85
2019-01-30T15:18:16.755Z,99496.55
2019-01-30T15:20:48.345Z,99483.45
2019-01-30T15:23:16.892Z,99491.20
2019-01-30T15:25:46.106Z,99492.48
2019-01-30T15:28:14.974Z,99478.94
2019-01-30T15:30:45.096Z,99481.14
2019-01-30T15:33:13.769Z,99482.55
2019-01-30T15:35:42.441Z,99483.47
2019-01-30T15:38:12.041Z,99481.06
2019-01-30T15:40:40.801Z,99479.05
2019-01-30T15:43:10.556Z,99485.06
2019-01-30T15:45:39.604Z,99485.95
2019-01-30T15:48:08.398Z,99486.98
2019-01-30T15:50:44.491Z,99482.27
2019-01-30T15:53:15.158Z,99494.58
2019-01-30T15:55:46.652Z,99490.93
2019-01-30T15:58:15.248Z,99487.05
2019-01-30T16:00:56.649Z,99495.72
2019-01-30T16:03:25.321Z,99492.06
2019-01-30T16:05:56.398Z,99499.73
2019-01-30T16:08:25.047Z,99498.99
2019-01-30T16:10:56.670Z,99500.52
2019-01-30T16:13:25.503Z,99498.43
2019-01-30T16:15:59.922Z,99497.69
2019-01-30T16:18:28.617Z,99498.44
2019-01-30T16:21:00.462Z,99500.20
2019-01-30T16:23:29.303Z,99492.97
2019-01-30T16:25:57.997Z,99493.91
2019-01-30T16:28:26.602Z,99490.50
2019-01-30T16:30:57.992Z,99507.14
2019-01-30T16:33:26.544Z,99505.81
2019-01-30T16:35:58.267Z,99506.79
2019-01-30T16:38:26.941Z,99505.50
2019-01-30T16:40:55.574Z,99511.90
2019-01-30T16:43:24.486Z,99510.54
2019-01-30T16:45:55.807Z,99509.79
2019-01-30T16:48:24.401Z,99509.66
2019-01-30T16:50:52.996Z,99510.62
2019-01-30T16:53:21.610Z,99508.06
2019-01-30T16:55:50.212Z,99506.70
2019-01-30T16:58:18.842Z,99498.27
2019-01-30T17:00:50.547Z,99499.55
2019-01-30T17:03:19.708Z,99494.42
2019-01-30T17:05:48.362Z,99502.46
2019-01-30T17:08:17.020Z,99499.95
2019-01-30T17:10:47.031Z,99505.86
2019-01-30T17:13:15.749Z,99505.33
2019-01-30T17:15:44.697Z,99506.34
2019-01-30T17:18:13.928Z,99505.85
2019-01-30T17:20:42.598Z,99505.15
2019-01-30T17:23:13.964Z,99502.23
2019-01-30T17:25:42.723Z,99496.77
2019-01-30T17:28:11.349Z,99506.11
2019-01-30T17:30:49.065Z,99507.44
2019-01-30T17:33:17.738Z,99502.73
2019-01-30T17:35:46.485Z,99502.38
2019-01-30T17:38:17.863Z,99504.84
2019-01-30T17:40:46.956Z,99499.02
2019-01-30T17:43:15.944Z,99508.41
2019-01-30T17:45:47.299Z,99502.86
2019-01-30T17:48:16.035Z,99503.73
2019-01-30T17:50:47.876Z,99514.77
2019-01-30T17:53:16.522Z,99511.41
2019-01-30T17:55:45.171Z,99505.54
2019-01-30T17:58:13.789Z,99503.95
2019-01-30T18:00:47.396Z,99507.34
2019-01-30T18:03:16.022Z,99506.38
2019-01-30T18:05:45.093Z,99511.41
2019-01-30T18:08:13.683Z,99506.37
2019-01-30T18:10:42.331Z,99505.81
2019-01-30T18:13:11.993Z,99505.69
2019-01-30T18:15:41.046Z,99506.92
2019-01-30T18:18:10.495Z,99503.39
2019-01-30T18:20:42.094Z,99501.27
2019-01-30T18:23:10.800Z,99501.48
2019-01-30T18:25:42.394Z,99504.80
2019-01-30T18:28:14.052Z,99500.91
2019-01-30T18:30:42.775Z,99494.92
2019-01-30T18:33:11.437Z,99493.16
2019-01-30T18:35:40.387Z,99494.08
2019-01-30T18:38:10.600Z,99500.43
2019-01-30T18:40:41.781Z,99500.95
2019-01-30T18:43:16.035Z,99500.95
2019-01-30T18:45:44.749Z,99489.58
2019-01-30T18:48:13.706Z,99504.53
2019-01-30T18:50:42.451Z,99498.17
2019-01-30T18:53:13.932Z,99499.19
2019-01-30T18:55:42.525Z,99498.87
2019-01-30T18:58:11.627Z,99504.39
2019-01-30T19:00:43.323Z,99503.67
2019-01-30T19:03:12.916Z,99502.44
2019-01-30T19:05:43.135Z,99500.75
2019-01-30T19:08:14.708Z,99503.34
2019-01-30T19:10:43.453Z,99504.31
2019-01-30T19:13:12.272Z,99510.19
2019-01-30T19:15:42.562Z,99510.30
2019-01-30T19:18:11.522Z,99512.86
2019-01-30T19:20:48.275Z,99507.83
2019-01-30T19:23:17.023Z,99509.55
2019-01-30T19:25:48.333Z,99503.59
2019-01-30T19:28:19.929Z,99510.45
2019-01-30T19:30:48.591Z,99519.44
2019-01-30T19:33:17.494Z,99511.19
2019-01-30T19:35:46.330Z,99516.81
2019-01-30T19:38:18.012Z,99507.43
2019-01-30T19:40:49.237Z,99511.70
2019-01-30T19:43:21.083Z,99513.86
2019-01-30T19:45:50.080Z,99510.45
2019-01-30T19:48:21.625Z,99511.77
2019-01-30T19:50:50.195Z,99504.58
2019-01-30T19:53:18.799Z,99501.66
2019-01-30T19:55:47.410Z,99502.83
2019-01-30T19:58:15.985Z,99501.62
2019-01-30T20:00:46.341Z,99504.22
2019-01-30T20:03:17.544Z,99507.10
2019-01-30T20:05:46.408Z,99507.06
2019-01-30T20:08:15.192Z,99499.55
2019-01-30T20:10:43.980Z,99503.78
2019-01-30T20:13:12.709Z,99503.39
2019-01-30T20:15:44.313Z,99510.25
2019-01-30T20:18:13.057Z,99507.69
2019-01-30T20:20:42.663Z,99501.34
2019-01-30T20:23:11.391Z,99504.73
2019-01-30T20:25:44.280Z,99510.66
2019-01-30T20:28:12.987Z,99514.19
2019-01-30T20:30:43.458Z,99506.45
2019-01-30T20:33:14.749Z,99508.23
2019-01-30T20:35:43.338Z,99502.40
2019-01-30T20:38:11.903Z,99511.27
2019-01-30T20:40:43.226Z,99511.27
2019-01-30T20:43:14.976Z,99501.48
2019-01-30T20:45:43.577Z,99512.19
2019-01-30T20:48:12.224Z,99510.06
2019-01-30T20:50:42.707Z,99508.83
2019-01-30T20:53:11.568Z,99508.28
2019-01-30T20:55:43.312Z,99508.28
2019-01-30T20:58:14.589Z,99514.30
2019-01-30T21:00:43.260Z,99513.60
2019-01-30T21:03:14.593Z,99513.97
2019-01-30T21:05:45.026Z,99517.40
2019-01-30T21:08:13.857Z,99516.09
2019-01-30T21:10:45.548Z,99517.77
2019-01-30T21:13:14.179Z,99517.88
2019-01-30T21:15:42.925Z,99515.61
2019-01-30T21:18:13.482Z,99514.88
2019-01-30T21:20:42.084Z,99513.60
2019-01-30T21:23:10.653Z,99508.49
2019-01-30T21:25:42.335Z,99516.05
2019-01-30T21:28:12.418Z,99515.72
2019-01-30T21:30:44.411Z,99513.17
2019-01-30T21:33:13.355Z,99518.72
2019-01-30T21:35:44.682Z,99517.40
2019-01-30T21:38:13.253Z,99521.67
2019-01-30T21:40:45.258Z,99517.33
2019-01-30T21:43:13.813Z,99517.37
2019-01-30T21:45:45.386Z,99515.25
2019-01-30T21:48:13.992Z,99517.10
2019-01-30T21:50:45.985Z,99517.88
2019-01-30T21:53:14.583Z,99517.94
2019-01-30T21:55:43.189Z,99511.92
2019-01-30T21:58:15.035Z,99513.70
2019-01-30T22:00:43.637Z,99511.55
2019-01-30T22:03:12.633Z,99515.42
2019-01-30T22:05:44.063Z,99506.58
2019-01-30T22:08:12.623Z,99509.91
2019-01-30T22:10:44.276Z,99508.63
2019-01-30T22:13:12.844Z,99505.23
2019-01-30T22:15:41.453Z,99502.75
2019-01-30T22:18:10.158Z,99507.89
2019-01-30T22:20:40.873Z,99507.39
2019-01-30T22:23:10.940Z,99513.81
2019-01-30T22:25:39.881Z,99518.85
2019-01-30T22:28:08.843Z,99521.91
2019-01-30T22:30:37.923Z,99514.72
2019-01-30T22:33:06.661Z,99513.91
2019-01-30T22:35:38.225Z,99505.87
2019-01-30T22:38:12.534Z,99510.08
2019-01-30T22:40:37.349Z,99515.19
2019-01-30T22:43:06.118Z,99517.30
2019-01-30T22:45:34.857Z,99508.36
2019-01-30T22:48:06.850Z,99513.44
2019-01-30T22:50:35.418Z,99513.84
2019-01-30T22:53:04.063Z,99519.39
2019-01-30T22:55:32.964Z,99522.44
2019-01-30T22:58:04.783Z,99531.82
2019-01-30T23:00:56.013Z,99529.64
2019-01-30T23:03:33.749Z,99530.17
2019-01-30T23:06:20.602Z,99524.62
2019-01-30T23:08:54.978Z,99521.30
2019-01-30T23:11:52.400Z,99515.19
2019-01-30T23:14:23.779Z,99515.22
2019-01-30T23:16:55.507Z,99514.07
2019-01-30T23:19:36.246Z,99514.03
2019-01-30T23:22:10.687Z,99511.11
2019-01-30T23:25:01.943Z,99513.66
2019-01-30T23:27:36.731Z,99511.14
2019-01-30T23:30:20.256Z,99517.12
2019-01-30T23:33:03.826Z,99519.24
2019-01-30T23:35:47.484Z,99515.88
2019-01-30T23:38:34.797Z,99516.69
2019-01-30T23:41:18.202Z,99513.30
2019-01-30T23:43:52.576Z,99514.20
2019-01-30T23:46:27.211Z,99518.87
2019-01-30T23:49:07.817Z,99512.58
2019-01-30T23:51:54.484Z,99508.31
2019-01-30T23:54:35.570Z,99512.20
2019-01-30T23:57:13.131Z,99507.16
2019-01-30T23:59:50.713Z,99507.94
